createdAt,value
2023-04-07T00:00:00.664Z,26.53
2023-04-07T00:01:00.635Z,26.50
2023-04-07T00:02:00.662Z,26.50
2023-04-07T00:03:00.667Z,26.51
2023-04-07T00:04:00.948Z,26.51
2023-04-07T00:05:00.630Z,26.50
2023-04-07T00:06:00.568Z,26.51
2023-04-07T00:07:00.583Z,26.49
2023-04-07T00:08:00.593Z,26.49
2023-04-07T00:09:00.578Z,26.49
2023-04-07T00:10:00.699Z,26.49
2023-04-07T00:11:00.599Z,26.47
2023-04-07T00:12:00.591Z,26.49
2023-04-07T00:13:00.646Z,26.49
2023-04-07T00:14:00.625Z,26.49
2023-04-07T00:15:00.640Z,26.49
2023-04-07T00:16:00.687Z,26.46
2023-04-07T00:17:00.628Z,26.47
2023-04-07T00:18:00.670Z,26.47
2023-04-07T00:19:00.669Z,26.47
2023-04-07T00:20:00.676Z,26.46
2023-04-07T00:21:00.702Z,26.43
2023-04-07T00:22:00.719Z,26.46
2023-04-07T00:23:00.723Z,26.46
2023-04-07T00:24:00.745Z,26.44
2023-04-07T00:25:00.778Z,26.43
2023-04-07T00:26:00.781Z,26.44
2023-04-07T00:27:00.791Z,26.44
2023-04-07T00:28:00.809Z,26.43
2023-04-07T00:29:00.856Z,26.46
2023-04-07T00:30:00.859Z,26.44
2023-04-07T00:31:00.890Z,26.43
2023-04-07T00:32:00.879Z,26.43
2023-04-07T00:33:00.935Z,26.43
2023-04-07T00:34:00.933Z,26.44
2023-04-07T00:35:02.414Z,26.43
2023-04-07T00:36:00.976Z,26.43
2023-04-07T00:37:00.972Z,26.44
2023-04-07T00:38:00.996Z,26.43
2023-04-07T00:39:01.021Z,26.43
2023-04-07T00:40:01.065Z,26.43
2023-04-07T00:41:01.052Z,26.43
2023-04-07T00:42:01.078Z,26.42
2023-04-07T00:43:01.089Z,26.43
2023-04-07T00:44:01.116Z,26.42
2023-04-07T00:45:01.146Z,26.40
2023-04-07T00:46:01.187Z,26.40
2023-04-07T00:47:01.173Z,26.42
2023-04-07T00:48:01.267Z,26.43
2023-04-07T00:49:01.213Z,26.40
2023-04-07T00:50:01.294Z,26.40
2023-04-07T00:51:01.265Z,26.42
2023-04-07T00:52:01.315Z,26.40
2023-04-07T00:53:01.306Z,26.40
2023-04-07T00:54:01.319Z,26.39
2023-04-07T00:55:01.360Z,26.40
2023-04-07T00:56:01.367Z,26.39
2023-04-07T00:57:01.439Z,26.39
2023-04-07T00:58:01.410Z,26.39
2023-04-07T00:59:01.471Z,26.38
2023-04-07T01:00:01.480Z,26.39
2023-04-07T01:01:01.493Z,26.40
2023-04-07T01:02:01.617Z,26.39
2023-04-07T01:03:01.788Z,26.38
2023-04-07T01:04:01.624Z,26.38
2023-04-07T01:05:01.614Z,26.38
2023-04-07T01:06:01.621Z,26.39
2023-04-07T01:07:01.635Z,26.38
2023-04-07T01:08:01.656Z,26.39
2023-04-07T01:09:01.672Z,26.38
2023-04-07T01:10:01.691Z,26.38
2023-04-07T01:11:01.720Z,26.36
2023-04-07T01:12:01.750Z,26.36
2023-04-07T01:13:01.784Z,26.36
2023-04-07T01:14:01.800Z,26.36
2023-04-07T01:15:01.813Z,26.38
2023-04-07T01:16:01.884Z,26.36
2023-04-07T01:17:01.870Z,26.38
2023-04-07T01:18:01.964Z,26.35
2023-04-07T01:19:01.933Z,26.38
2023-04-07T01:20:01.961Z,26.33
2023-04-07T01:21:01.989Z,26.33
2023-04-07T01:22:02.027Z,26.35
2023-04-07T01:23:02.043Z,26.33
2023-04-07T01:24:02.087Z,26.36
2023-04-07T01:25:02.251Z,26.35
2023-04-07T01:26:02.194Z,26.32
2023-04-07T01:27:02.165Z,26.36
2023-04-07T01:28:02.244Z,26.36
2023-04-07T01:29:02.217Z,26.36
2023-04-07T01:30:02.250Z,26.35
2023-04-07T01:31:02.286Z,26.35
2023-04-07T01:32:02.339Z,26.35
2023-04-07T01:33:02.372Z,26.35
2023-04-07T01:34:02.348Z,26.35
2023-04-07T01:35:02.385Z,26.35
2023-04-07T01:36:02.417Z,26.35
2023-04-07T01:37:02.456Z,26.35
2023-04-07T01:38:02.475Z,26.35
2023-04-07T01:39:02.509Z,26.33
2023-04-07T01:40:02.546Z,26.33
2023-04-07T01:41:02.539Z,26.31
2023-04-07T01:42:02.518Z,26.33
2023-04-07T01:43:02.520Z,26.33
2023-04-07T01:44:02.488Z,26.32
2023-04-07T01:45:02.493Z,26.32
2023-04-07T01:46:02.494Z,26.32
2023-04-07T01:47:02.549Z,26.33
2023-04-07T01:48:02.474Z,26.32
2023-04-07T01:49:02.450Z,26.32
2023-04-07T01:50:02.467Z,26.31
2023-04-07T01:51:02.433Z,26.32
2023-04-07T01:52:02.423Z,26.31
2023-04-07T01:53:02.416Z,26.32
2023-04-07T01:54:02.426Z,26.32
2023-04-07T01:55:02.390Z,26.29
2023-04-07T01:56:02.386Z,26.31
2023-04-07T01:57:02.382Z,26.29
2023-04-07T01:58:02.372Z,26.31
2023-04-07T01:59:02.406Z,26.29
2023-04-07T02:00:02.455Z,26.31
2023-04-07T02:01:02.508Z,26.31
2023-04-07T02:02:02.586Z,26.31
2023-04-07T02:03:02.759Z,26.31
2023-04-07T02:04:02.596Z,26.29
2023-04-07T02:05:02.604Z,26.31
2023-04-07T02:06:02.655Z,26.31
2023-04-07T02:07:02.669Z,26.29
2023-04-07T02:08:02.746Z,26.29
2023-04-07T02:09:02.768Z,26.28
2023-04-07T02:10:02.877Z,26.29
2023-04-07T02:11:02.826Z,26.31
2023-04-07T02:12:02.847Z,26.29
2023-04-07T02:13:02.873Z,26.29
2023-04-07T02:14:02.919Z,26.28
2023-04-07T02:15:02.944Z,26.28
2023-04-07T02:16:03.002Z,26.28
2023-04-07T02:17:03.001Z,26.26
2023-04-07T02:18:03.129Z,26.31
2023-04-07T02:19:03.056Z,26.29
2023-04-07T02:20:03.107Z,26.28
2023-04-07T02:21:03.133Z,26.28
2023-04-07T02:22:03.166Z,26.29
2023-04-07T02:23:03.192Z,26.31
2023-04-07T02:24:03.223Z,26.28
2023-04-07T02:25:03.255Z,26.26
2023-04-07T02:26:03.297Z,26.28
2023-04-07T02:27:03.328Z,26.26
2023-04-07T02:28:03.360Z,26.26
2023-04-07T02:29:03.431Z,26.25
2023-04-07T02:30:03.452Z,26.26
2023-04-07T02:31:03.462Z,26.28
2023-04-07T02:32:03.679Z,26.26
2023-04-07T02:33:03.563Z,26.25
2023-04-07T02:34:03.584Z,26.26
2023-04-07T02:35:03.609Z,26.26
2023-04-07T02:36:03.630Z,26.26
2023-04-07T02:37:03.720Z,26.25
2023-04-07T02:38:03.718Z,26.25
2023-04-07T02:39:03.757Z,26.25
2023-04-07T02:40:03.768Z,26.26
2023-04-07T02:41:03.826Z,26.25
2023-04-07T02:42:03.851Z,26.25
2023-04-07T02:43:03.869Z,26.25
2023-04-07T02:44:03.901Z,26.29
2023-04-07T02:45:03.936Z,26.29
2023-04-07T02:46:04.042Z,26.32
2023-04-07T02:47:03.986Z,26.31
2023-04-07T02:48:04.022Z,26.25
2023-04-07T02:49:04.059Z,26.23
2023-04-07T02:50:04.102Z,26.19
2023-04-07T02:51:04.142Z,26.18
2023-04-07T02:52:04.174Z,26.12
2023-04-07T02:53:04.229Z,26.06
2023-04-07T02:54:04.268Z,25.94
2023-04-07T02:55:04.310Z,25.85
2023-04-07T02:56:04.374Z,25.77
2023-04-07T02:57:04.379Z,25.66
2023-04-07T02:58:04.379Z,25.57
2023-04-07T02:59:04.390Z,25.52
2023-04-07T03:00:04.430Z,25.40
2023-04-07T03:01:04.520Z,25.36
2023-04-07T03:02:04.583Z,25.30
2023-04-07T03:03:04.633Z,25.29
2023-04-07T03:04:04.531Z,25.30
2023-04-07T03:05:04.499Z,25.30
2023-04-07T03:06:04.438Z,25.37
2023-04-07T03:07:04.429Z,25.37
2023-04-07T03:08:04.394Z,25.40
2023-04-07T03:09:04.404Z,25.43
2023-04-07T03:10:04.395Z,25.46
2023-04-07T03:11:04.366Z,25.47
2023-04-07T03:12:04.358Z,25.50
2023-04-07T03:13:04.342Z,25.50
2023-04-07T03:14:04.319Z,25.54
2023-04-07T03:15:04.310Z,25.54
2023-04-07T03:16:04.320Z,25.56
2023-04-07T03:17:04.380Z,25.57
2023-04-07T03:18:04.312Z,25.59
2023-04-07T03:19:04.300Z,25.57
2023-04-07T03:20:04.298Z,25.60
2023-04-07T03:21:04.324Z,25.60
2023-04-07T03:22:04.349Z,25.60
2023-04-07T03:23:04.317Z,25.59
2023-04-07T03:24:04.347Z,25.63
2023-04-07T03:25:04.340Z,25.57
2023-04-07T03:26:04.317Z,25.63
2023-04-07T03:27:04.309Z,25.61
2023-04-07T03:28:04.296Z,25.61
2023-04-07T03:29:04.313Z,25.63
2023-04-07T03:30:04.302Z,25.60
2023-04-07T03:31:04.304Z,25.59
2023-04-07T03:32:04.267Z,25.60
2023-04-07T03:33:04.314Z,25.60
2023-04-07T03:34:04.221Z,25.61
2023-04-07T03:35:04.268Z,25.60
2023-04-07T03:36:04.409Z,25.63
2023-04-07T03:37:04.366Z,25.63
2023-04-07T03:38:04.429Z,25.61
2023-04-07T03:39:04.444Z,25.61
2023-04-07T03:40:04.456Z,25.61
2023-04-07T03:41:04.474Z,25.59
2023-04-07T03:42:04.501Z,25.61
2023-04-07T03:43:04.534Z,25.61
2023-04-07T03:44:04.583Z,25.61
2023-04-07T03:45:04.621Z,25.60
2023-04-07T03:46:04.702Z,25.57
2023-04-07T03:47:04.733Z,25.60
2023-04-07T03:48:04.800Z,25.56
2023-04-07T03:49:04.833Z,25.59
2023-04-07T03:50:04.893Z,25.59
2023-04-07T03:51:04.946Z,25.60
2023-04-07T03:52:04.996Z,25.57
2023-04-07T03:53:05.064Z,25.57
2023-04-07T03:54:05.090Z,25.57
2023-04-07T03:55:05.086Z,25.57
2023-04-07T03:56:05.063Z,25.54
2023-04-07T03:57:05.055Z,25.54
2023-04-07T03:58:05.042Z,25.56
2023-04-07T03:59:05.030Z,25.54
2023-04-07T04:00:05.043Z,25.54
2023-04-07T04:01:05.038Z,25.54
2023-04-07T04:02:05.055Z,25.53
2023-04-07T04:03:05.145Z,25.53
2023-04-07T04:04:05.188Z,25.53
2023-04-07T04:05:05.122Z,25.57
2023-04-07T04:06:05.134Z,25.54
2023-04-07T04:07:05.166Z,25.54
2023-04-07T04:08:05.153Z,25.54
2023-04-07T04:09:05.177Z,25.53
2023-04-07T04:10:05.183Z,25.53
2023-04-07T04:11:05.200Z,25.53
2023-04-07T04:12:05.197Z,25.54
2023-04-07T04:13:05.174Z,25.50
2023-04-07T04:14:05.157Z,25.50
2023-04-07T04:15:05.152Z,25.52
2023-04-07T04:16:05.180Z,25.50
2023-04-07T04:17:05.411Z,25.49
2023-04-07T04:18:05.210Z,25.49
2023-04-07T04:19:05.123Z,25.49
2023-04-07T04:20:05.120Z,25.46
2023-04-07T04:21:05.107Z,25.49
2023-04-07T04:22:05.173Z,25.47
2023-04-07T04:23:05.196Z,25.50
2023-04-07T04:24:05.208Z,25.50
2023-04-07T04:25:05.265Z,25.47
2023-04-07T04:26:05.274Z,25.50
2023-04-07T04:27:05.316Z,25.50
2023-04-07T04:28:05.322Z,25.47
2023-04-07T04:29:05.350Z,25.46
2023-04-07T04:30:05.342Z,25.44
2023-04-07T04:31:05.416Z,25.43
2023-04-07T04:32:05.359Z,25.44
2023-04-07T04:33:05.431Z,25.40
2023-04-07T04:34:05.347Z,25.42
2023-04-07T04:35:05.404Z,25.42
2023-04-07T04:36:05.364Z,25.40
2023-04-07T04:37:05.465Z,25.42
2023-04-07T04:38:05.413Z,25.42
2023-04-07T04:39:05.409Z,25.42
2023-04-07T04:40:05.400Z,25.40
2023-04-07T04:41:05.403Z,25.40
2023-04-07T04:42:05.405Z,25.39
2023-04-07T04:43:05.383Z,25.37
2023-04-07T04:44:05.381Z,25.36
2023-04-07T04:45:05.386Z,25.36
2023-04-07T04:46:05.390Z,25.39
2023-04-07T04:47:05.442Z,25.37
2023-04-07T04:48:05.399Z,25.43
2023-04-07T04:49:05.383Z,25.37
2023-04-07T04:50:05.379Z,25.42
2023-04-07T04:51:05.392Z,25.42
2023-04-07T04:52:05.386Z,25.40
2023-04-07T04:53:05.379Z,25.42
2023-04-07T04:54:05.372Z,25.39
2023-04-07T04:55:05.372Z,25.37
2023-04-07T04:56:05.367Z,25.36
2023-04-07T04:57:05.393Z,25.39
2023-04-07T04:58:05.366Z,25.37
2023-04-07T04:59:05.370Z,25.36
2023-04-07T05:00:05.387Z,25.32
2023-04-07T05:01:05.518Z,25.32
2023-04-07T05:02:05.429Z,25.32
2023-04-07T05:03:05.536Z,25.29
2023-04-07T05:04:05.481Z,25.32
2023-04-07T05:05:05.624Z,25.30
2023-04-07T05:06:05.411Z,25.32
2023-04-07T05:07:05.394Z,25.32
2023-04-07T05:08:05.358Z,25.30
2023-04-07T05:09:05.336Z,25.28
2023-04-07T05:10:05.325Z,25.30
2023-04-07T05:11:05.336Z,25.30
2023-04-07T05:12:05.337Z,25.32
2023-04-07T05:13:05.344Z,25.29
2023-04-07T05:14:05.347Z,25.28
2023-04-07T05:15:05.343Z,25.29
2023-04-07T05:16:05.381Z,25.29
2023-04-07T05:17:05.342Z,25.28
2023-04-07T05:18:05.439Z,25.30
2023-04-07T05:19:05.341Z,25.29
2023-04-07T05:20:05.320Z,25.28
2023-04-07T05:21:05.340Z,25.28
2023-04-07T05:22:05.302Z,25.05
2023-04-07T05:23:05.322Z,25.14
2023-04-07T05:24:05.961Z,25.16
2023-04-07T05:25:05.297Z,25.14
2023-04-07T05:26:05.291Z,25.11
2023-04-07T05:27:05.285Z,25.09
2023-04-07T05:28:05.282Z,25.05
2023-04-07T05:29:05.272Z,25.05
2023-04-07T05:30:05.267Z,25.04
2023-04-07T05:31:07.523Z,24.98
2023-04-07T05:32:05.300Z,24.97
2023-04-07T05:33:05.310Z,24.95
2023-04-07T05:34:05.267Z,24.94
2023-04-07T05:35:05.262Z,24.92
2023-04-07T05:36:05.300Z,24.94
2023-04-07T05:37:05.275Z,24.92
2023-04-07T05:38:05.270Z,24.90
2023-04-07T05:39:05.258Z,24.88
2023-04-07T05:40:05.251Z,24.85
2023-04-07T05:41:05.255Z,24.84
2023-04-07T05:42:05.275Z,24.81
2023-04-07T05:43:05.248Z,24.81
2023-04-07T05:44:05.240Z,24.78
2023-04-07T05:45:05.256Z,24.75
2023-04-07T05:46:05.297Z,24.73
2023-04-07T05:47:05.237Z,24.74
2023-04-07T05:48:05.292Z,24.68
2023-04-07T05:49:18.906Z,24.64
2023-04-07T05:50:06.212Z,24.66
2023-04-07T05:51:05.236Z,24.64
2023-04-07T05:52:05.224Z,24.62
2023-04-07T05:53:05.233Z,24.62
2023-04-07T05:54:05.337Z,24.60
2023-04-07T05:55:05.224Z,24.56
2023-04-07T05:56:05.218Z,24.55
2023-04-07T05:57:05.251Z,24.55
2023-04-07T05:58:05.243Z,24.53
2023-04-07T05:59:05.231Z,24.49
2023-04-07T06:00:05.216Z,24.49
2023-04-07T06:01:05.234Z,24.50
2023-04-07T06:02:05.311Z,24.46
2023-04-07T06:03:05.337Z,24.46
2023-04-07T06:04:05.339Z,24.44
2023-04-07T06:05:05.385Z,24.44
2023-04-07T06:06:05.401Z,24.40
2023-04-07T06:07:05.461Z,24.43
2023-04-07T06:08:05.510Z,24.43
2023-04-07T06:09:07.027Z,24.40
2023-04-07T06:10:05.834Z,24.39
2023-04-07T06:11:05.889Z,24.38
2023-04-07T06:12:05.923Z,24.39
2023-04-07T06:13:05.999Z,24.36
2023-04-07T06:14:06.040Z,24.32
2023-04-07T06:15:06.101Z,24.35
2023-04-07T06:16:06.130Z,24.33
2023-04-07T06:17:06.260Z,24.28
2023-04-07T06:18:06.250Z,24.33
2023-04-07T06:19:06.298Z,24.29
2023-04-07T06:20:06.349Z,24.25
2023-04-07T06:21:06.406Z,24.26
2023-04-07T06:22:06.448Z,24.28
2023-04-07T06:23:06.534Z,24.29
2023-04-07T06:24:06.575Z,24.28
2023-04-07T06:25:06.630Z,24.26
2023-04-07T06:26:06.697Z,24.26
2023-04-07T06:27:06.761Z,24.23
2023-04-07T06:28:06.808Z,24.22
2023-04-07T06:29:06.862Z,24.23
2023-04-07T06:30:06.928Z,24.25
2023-04-07T06:31:07.061Z,24.25
2023-04-07T06:32:07.048Z,24.18
2023-04-07T06:33:07.104Z,24.21
2023-04-07T06:34:07.167Z,24.21
2023-04-07T06:35:07.223Z,24.23
2023-04-07T06:36:07.291Z,24.23
2023-04-07T06:37:07.379Z,24.22
2023-04-07T06:38:07.436Z,24.21
2023-04-07T06:39:07.472Z,24.18
2023-04-07T06:40:07.555Z,24.21
2023-04-07T06:41:07.591Z,24.21
2023-04-07T06:42:07.693Z,24.22
2023-04-07T06:43:07.720Z,24.25
2023-04-07T06:44:09.472Z,24.21
2023-04-07T06:45:07.793Z,24.22
2023-04-07T06:46:07.864Z,24.19
2023-04-07T06:47:07.811Z,24.18
2023-04-07T06:48:07.871Z,24.15
2023-04-07T06:49:07.813Z,24.13
2023-04-07T06:50:07.808Z,24.15
2023-04-07T06:51:07.808Z,24.13
2023-04-07T06:52:07.793Z,24.16
2023-04-07T06:53:07.825Z,24.13
2023-04-07T06:54:07.837Z,24.09
2023-04-07T06:55:07.834Z,24.11
2023-04-07T06:56:07.841Z,24.12
2023-04-07T06:57:07.924Z,24.13
2023-04-07T06:58:07.958Z,24.08
2023-04-07T06:59:08.035Z,24.11
2023-04-07T07:00:08.131Z,24.09
2023-04-07T07:01:08.197Z,24.11
2023-04-07T07:02:08.356Z,24.09
2023-04-07T07:03:08.412Z,24.12
2023-04-07T07:04:08.440Z,24.12
2023-04-07T07:05:08.435Z,24.15
2023-04-07T07:06:08.505Z,24.13
2023-04-07T07:07:08.589Z,24.12
2023-04-07T07:08:08.631Z,24.12
2023-04-07T07:09:08.687Z,24.13
2023-04-07T07:10:08.730Z,24.12
2023-04-07T07:11:08.828Z,24.11
2023-04-07T07:12:08.895Z,24.12
2023-04-07T07:13:08.958Z,24.12
2023-04-07T07:14:09.036Z,24.09
2023-04-07T07:15:09.090Z,24.05
2023-04-07T07:16:09.169Z,24.02
2023-04-07T07:17:09.206Z,24.02
2023-04-07T07:18:09.279Z,24.01
2023-04-07T07:19:09.362Z,23.97
2023-04-07T07:20:09.399Z,23.94
2023-04-07T07:21:09.483Z,23.94
2023-04-07T07:22:09.588Z,23.94
2023-04-07T07:23:09.576Z,23.95
2023-04-07T07:24:09.646Z,23.94
2023-04-07T07:25:09.739Z,23.95
2023-04-07T07:26:09.756Z,23.89
2023-04-07T07:27:09.814Z,23.95
2023-04-07T07:28:09.868Z,23.97
2023-04-07T07:29:09.963Z,23.89
2023-04-07T07:30:10.010Z,23.93
2023-04-07T07:31:10.098Z,23.94
2023-04-07T07:32:10.127Z,23.97
2023-04-07T07:33:10.190Z,23.98
2023-04-07T07:34:10.267Z,23.97
2023-04-07T07:35:10.307Z,24.01
2023-04-07T07:36:10.489Z,24.05
2023-04-07T07:37:10.457Z,24.02
2023-04-07T07:38:10.515Z,24.01
2023-04-07T07:39:10.588Z,24.02
2023-04-07T07:40:10.645Z,24.04
2023-04-07T07:41:10.698Z,24.07
2023-04-07T07:42:10.775Z,24.11
2023-04-07T07:43:10.819Z,24.11
2023-04-07T07:44:10.876Z,24.11
2023-04-07T07:45:10.933Z,24.12
2023-04-07T07:46:11.067Z,24.15
2023-04-07T07:47:11.064Z,24.18
2023-04-07T07:48:11.159Z,24.15
2023-04-07T07:49:11.199Z,24.18
2023-04-07T07:50:11.262Z,24.18
2023-04-07T07:51:11.261Z,24.15
2023-04-07T07:52:11.276Z,24.11
2023-04-07T07:53:11.310Z,24.16
2023-04-07T07:54:11.295Z,24.12
2023-04-07T07:55:11.304Z,24.18
2023-04-07T07:56:11.294Z,24.21
2023-04-07T07:57:11.305Z,24.19
2023-04-07T07:58:11.308Z,24.21
2023-04-07T07:59:11.372Z,24.23
2023-04-07T08:00:11.326Z,24.23
2023-04-07T08:01:11.321Z,24.26
2023-04-07T08:02:11.491Z,24.25
2023-04-07T08:03:11.486Z,24.26
2023-04-07T08:04:11.643Z,24.26
2023-04-07T08:05:11.537Z,24.28
2023-04-07T08:06:11.578Z,24.32
2023-04-07T08:07:11.622Z,24.32
2023-04-07T08:08:11.683Z,24.36
2023-04-07T08:09:11.751Z,24.36
2023-04-07T08:10:11.803Z,24.39
2023-04-07T08:11:11.854Z,24.38
2023-04-07T08:12:11.952Z,24.40
2023-04-07T08:13:11.970Z,24.42
2023-04-07T08:14:12.025Z,24.40
2023-04-07T08:15:12.081Z,24.42
2023-04-07T08:16:12.221Z,24.39
2023-04-07T08:17:12.212Z,24.40
2023-04-07T08:18:12.317Z,24.43
2023-04-07T08:19:12.308Z,24.43
2023-04-07T08:20:12.399Z,24.44
2023-04-07T08:21:12.444Z,24.42
2023-04-07T08:22:12.489Z,24.43
2023-04-07T08:23:12.570Z,24.42
2023-04-07T08:24:12.625Z,24.42
2023-04-07T08:25:12.671Z,24.42
2023-04-07T08:26:12.742Z,24.42
2023-04-07T08:27:12.817Z,24.43
2023-04-07T08:28:12.859Z,24.40
2023-04-07T08:29:12.935Z,24.44
2023-04-07T08:30:13.060Z,24.47
2023-04-07T08:31:13.055Z,24.47
2023-04-07T08:32:13.091Z,24.50
2023-04-07T08:33:13.148Z,24.52
2023-04-07T08:34:13.205Z,24.55
2023-04-07T08:35:13.261Z,24.53
2023-04-07T08:36:13.313Z,24.53
2023-04-07T08:37:13.362Z,24.50
2023-04-07T08:38:13.408Z,24.50
2023-04-07T08:39:13.472Z,24.50
2023-04-07T08:40:13.559Z,24.50
2023-04-07T08:41:13.610Z,24.50
2023-04-07T08:42:13.636Z,24.49
2023-04-07T08:43:13.703Z,24.49
2023-04-07T08:44:13.812Z,24.49
2023-04-07T08:45:13.846Z,24.52
2023-04-07T08:46:13.897Z,24.53
2023-04-07T08:47:14.002Z,24.53
2023-04-07T08:48:14.013Z,24.57
2023-04-07T08:49:14.168Z,24.62
2023-04-07T08:50:14.114Z,24.67
2023-04-07T08:51:14.166Z,24.75
2023-04-07T08:52:14.206Z,24.81
2023-04-07T08:53:14.264Z,24.88
2023-04-07T08:54:14.295Z,24.98
2023-04-07T08:55:14.321Z,25.02
2023-04-07T08:56:14.331Z,25.08
2023-04-07T08:57:14.341Z,25.15
2023-04-07T08:58:14.357Z,25.19
2023-04-07T08:59:14.406Z,25.23
2023-04-07T09:00:14.416Z,25.30
2023-04-07T09:01:14.430Z,25.36
2023-04-07T09:02:14.487Z,25.42
2023-04-07T09:03:14.462Z,25.47
2023-04-07T09:04:14.503Z,25.53
2023-04-07T09:05:14.523Z,25.59
2023-04-07T09:06:14.506Z,25.61
2023-04-07T09:07:14.518Z,25.66
2023-04-07T09:08:14.559Z,25.69
2023-04-07T09:09:15.480Z,25.73
2023-04-07T09:10:14.693Z,25.78
2023-04-07T09:11:14.738Z,25.83
2023-04-07T09:12:14.817Z,25.84
2023-04-07T09:13:14.892Z,25.84
2023-04-07T09:14:14.955Z,25.83
2023-04-07T09:15:15.006Z,25.85
2023-04-07T09:16:15.097Z,25.89
2023-04-07T09:17:15.131Z,25.91
2023-04-07T09:18:15.232Z,25.95
2023-04-07T09:19:15.253Z,26.01
2023-04-07T09:20:15.302Z,26.05
2023-04-07T09:21:15.858Z,26.06
2023-04-07T09:22:15.293Z,26.11
2023-04-07T09:23:15.290Z,26.16
2023-04-07T09:24:15.269Z,26.18
2023-04-07T09:25:15.301Z,26.21
2023-04-07T09:26:15.247Z,26.25
2023-04-07T09:27:17.102Z,26.26
2023-04-07T09:28:15.228Z,26.32
2023-04-07T09:29:15.228Z,26.35
2023-04-07T09:30:15.229Z,26.38
2023-04-07T09:31:15.239Z,26.40
2023-04-07T09:32:15.297Z,26.44
2023-04-07T09:33:15.259Z,26.46
2023-04-07T09:34:15.265Z,26.47
2023-04-07T09:35:15.218Z,26.49
2023-04-07T09:36:15.261Z,26.51
2023-04-07T09:37:15.203Z,26.56
2023-04-07T09:38:15.186Z,26.57
2023-04-07T09:39:15.186Z,26.61
2023-04-07T09:40:15.192Z,26.67
2023-04-07T09:41:15.202Z,26.67
2023-04-07T09:42:15.147Z,26.68
2023-04-07T09:43:15.135Z,26.73
2023-04-07T09:44:15.112Z,26.74
2023-04-07T09:45:27.227Z,26.76
2023-04-07T09:46:16.142Z,26.77
2023-04-07T09:47:15.068Z,26.78
2023-04-07T09:48:15.046Z,26.84
2023-04-07T09:49:15.043Z,26.83
2023-04-07T09:50:15.026Z,26.84
2023-04-07T09:51:14.997Z,26.85
2023-04-07T09:52:14.994Z,26.91
2023-04-07T09:53:14.977Z,26.95
2023-04-07T09:54:14.981Z,26.95
2023-04-07T09:55:14.990Z,26.98
2023-04-07T09:56:14.963Z,26.98
2023-04-07T09:57:14.939Z,26.99
2023-04-07T09:58:14.941Z,27.02
2023-04-07T09:59:14.928Z,27.04
2023-04-07T10:00:14.917Z,27.06
2023-04-07T10:01:14.914Z,27.11
2023-04-07T10:02:14.906Z,27.12
2023-04-07T10:03:14.866Z,27.13
2023-04-07T10:04:14.894Z,27.18
2023-04-07T10:05:14.846Z,27.19
2023-04-07T10:06:14.803Z,27.18
2023-04-07T10:07:14.824Z,27.25
2023-04-07T10:08:14.783Z,27.25
2023-04-07T10:09:14.763Z,27.29
2023-04-07T10:10:14.772Z,27.32
2023-04-07T10:11:14.764Z,27.33
2023-04-07T10:12:14.786Z,27.39
2023-04-07T10:13:14.795Z,27.42
2023-04-07T10:14:14.805Z,27.43
2023-04-07T10:15:14.853Z,27.46
2023-04-07T10:16:14.876Z,27.49
2023-04-07T10:17:14.921Z,27.52
2023-04-07T10:18:14.964Z,27.53
2023-04-07T10:19:15.012Z,27.56
2023-04-07T10:20:15.047Z,27.60
2023-04-07T10:21:15.085Z,27.58
2023-04-07T10:22:15.133Z,27.64
2023-04-07T10:23:15.187Z,27.68
2023-04-07T10:24:15.226Z,27.70
2023-04-07T10:25:15.212Z,27.71
2023-04-07T10:26:15.187Z,27.75
2023-04-07T10:27:15.177Z,27.75
2023-04-07T10:28:15.138Z,27.79
2023-04-07T10:29:15.136Z,27.79
2023-04-07T10:30:15.153Z,27.79
2023-04-07T10:31:15.132Z,27.81
2023-04-07T10:32:15.061Z,27.80
2023-04-07T10:33:15.024Z,27.75
2023-04-07T10:34:15.016Z,27.77
2023-04-07T10:35:15.029Z,27.77
2023-04-07T10:36:15.047Z,27.75
2023-04-07T10:37:15.067Z,27.73
2023-04-07T10:38:15.328Z,27.71
2023-04-07T10:39:15.126Z,27.73
2023-04-07T10:40:15.169Z,27.77
2023-04-07T10:41:15.206Z,27.81
2023-04-07T10:42:15.219Z,27.81
2023-04-07T10:43:15.254Z,27.83
2023-04-07T10:44:15.286Z,27.79
2023-04-07T10:45:15.346Z,27.79
2023-04-07T10:46:15.420Z,27.80
2023-04-07T10:47:15.351Z,27.77
2023-04-07T10:48:15.413Z,27.77
2023-04-07T10:49:17.776Z,27.79
2023-04-07T10:50:15.445Z,27.75
2023-04-07T10:51:15.398Z,27.77
2023-04-07T10:52:15.349Z,27.80
2023-04-07T10:53:15.373Z,27.79
2023-04-07T10:54:15.307Z,27.79
2023-04-07T10:55:15.292Z,27.77
2023-04-07T10:56:15.287Z,27.77
2023-04-07T10:57:15.247Z,27.75
2023-04-07T10:58:15.233Z,27.77
2023-04-07T10:59:15.203Z,27.74
2023-04-07T11:00:15.199Z,27.75
2023-04-07T11:01:15.243Z,27.73
2023-04-07T11:02:15.226Z,27.73
2023-04-07T11:03:15.264Z,27.71
2023-04-07T11:04:15.183Z,27.71
2023-04-07T11:05:15.142Z,27.73
2023-04-07T11:06:15.079Z,27.70
2023-04-07T11:07:15.056Z,27.73
2023-04-07T11:08:15.047Z,27.70
2023-04-07T11:09:15.013Z,27.70
2023-04-07T11:10:14.988Z,27.67
2023-04-07T11:11:14.973Z,27.68
2023-04-07T11:12:14.966Z,27.70
2023-04-07T11:13:14.935Z,27.68
2023-04-07T11:14:14.914Z,27.71
2023-04-07T11:15:14.881Z,27.68
2023-04-07T11:16:15.039Z,27.68
2023-04-07T11:17:14.858Z,27.65
2023-04-07T11:18:14.833Z,27.68
2023-04-07T11:19:14.801Z,27.68
2023-04-07T11:20:14.816Z,27.65
2023-04-07T11:21:14.758Z,27.68
2023-04-07T11:22:22.883Z,27.67
2023-04-07T11:23:15.717Z,27.70
2023-04-07T11:24:14.684Z,27.65
2023-04-07T11:25:14.676Z,27.67
2023-04-07T11:26:14.659Z,27.67
2023-04-07T11:27:14.618Z,27.68
2023-04-07T11:28:14.597Z,27.67
2023-04-07T11:29:14.598Z,27.67
2023-04-07T11:30:14.575Z,27.71
2023-04-07T11:31:14.613Z,27.68
2023-04-07T11:32:14.513Z,27.71
2023-04-07T11:33:14.519Z,27.65
2023-04-07T11:34:14.494Z,27.68
2023-04-07T11:35:14.500Z,27.74
2023-04-07T11:36:14.572Z,27.81
2023-04-07T11:37:14.538Z,27.80
2023-04-07T11:38:14.542Z,27.80
2023-04-07T11:39:14.560Z,27.83
2023-04-07T11:40:14.638Z,27.88
2023-04-07T11:41:14.635Z,27.94
2023-04-07T11:42:14.609Z,27.91
2023-04-07T11:43:14.645Z,27.94
2023-04-07T11:44:14.652Z,27.97
2023-04-07T11:45:14.657Z,27.92
2023-04-07T11:46:14.720Z,27.91
2023-04-07T11:47:14.695Z,27.92
2023-04-07T11:48:14.710Z,27.92
2023-04-07T11:49:14.726Z,27.91
2023-04-07T11:50:14.696Z,27.91
2023-04-07T11:51:14.698Z,27.92
2023-04-07T11:52:14.668Z,27.94
2023-04-07T11:53:14.653Z,27.99
2023-04-07T11:54:14.614Z,27.98
2023-04-07T11:55:14.593Z,27.95
2023-04-07T11:56:14.563Z,27.98
2023-04-07T11:57:14.554Z,27.99
2023-04-07T11:58:14.512Z,27.99
2023-04-07T11:59:14.476Z,27.98
2023-04-07T12:00:14.485Z,27.95
2023-04-07T12:01:14.424Z,27.97
2023-04-07T12:02:14.481Z,28.04
2023-04-07T12:03:14.879Z,28.09
2023-04-07T12:04:14.457Z,28.05
2023-04-07T12:05:14.431Z,28.04
2023-04-07T12:06:14.293Z,28.04
2023-04-07T12:07:14.264Z,28.05
2023-04-07T12:08:14.240Z,28.05
2023-04-07T12:09:14.200Z,28.05
2023-04-07T12:10:14.248Z,28.05
2023-04-07T12:11:14.167Z,28.07
2023-04-07T12:12:14.118Z,28.09
2023-04-07T12:13:14.096Z,28.08
2023-04-07T12:14:14.068Z,28.07
2023-04-07T12:15:14.061Z,28.07
2023-04-07T12:16:14.061Z,28.09
2023-04-07T12:17:13.980Z,28.12
2023-04-07T12:18:13.984Z,28.20
2023-04-07T12:19:13.958Z,28.23
2023-04-07T12:20:13.922Z,28.23
2023-04-07T12:21:13.912Z,28.26
2023-04-07T12:22:13.874Z,28.25
2023-04-07T12:23:13.887Z,28.23
2023-04-07T12:24:13.855Z,28.18
2023-04-07T12:25:13.827Z,28.19
2023-04-07T12:26:13.810Z,28.16
2023-04-07T12:27:13.805Z,28.18
2023-04-07T12:28:13.792Z,28.20
2023-04-07T12:29:13.778Z,28.23
2023-04-07T12:30:13.757Z,28.23
2023-04-07T12:31:13.729Z,28.19
2023-04-07T12:32:13.781Z,28.19
2023-04-07T12:33:13.672Z,28.19
2023-04-07T12:34:13.642Z,28.13
2023-04-07T12:35:13.614Z,28.13
2023-04-07T12:36:13.638Z,28.13
2023-04-07T12:37:13.557Z,28.15
2023-04-07T12:38:13.531Z,28.12
2023-04-07T12:39:13.520Z,28.13
2023-04-07T12:40:13.541Z,28.11
2023-04-07T12:41:13.493Z,28.11
2023-04-07T12:42:13.451Z,28.11
2023-04-07T12:43:13.426Z,28.09
2023-04-07T12:44:13.400Z,28.08
2023-04-07T12:45:13.381Z,28.08
2023-04-07T12:46:13.465Z,28.05
2023-04-07T12:47:13.317Z,28.05
2023-04-07T12:48:13.321Z,28.07
2023-04-07T12:49:13.265Z,28.07
2023-04-07T12:50:13.241Z,28.05
2023-04-07T12:51:13.238Z,28.07
2023-04-07T12:52:13.207Z,28.04